sensor_id;sensor_type;location;lat;lon;timestamp;P1;durP1;ratioP1;P2;durP2;ratioP2
86304;SDS011;76964;49.316;7.118;2024-03-17T00:01:18;1.50;;;1.50;;
86304;SDS011;76964;49.316;7.118;2024-03-17T00:03:44;1.40;;;1.40;;
86304;SDS011;76964;49.316;7.118;2024-03-17T00:06:13;1.40;;;1.40;;
86304;SDS011;76964;49.316;7.118;2024-03-17T00:08:39;1.67;;;1.57;;
86304;SDS011;76964;49.316;7.118;2024-03-17T00:11:06;1.50;;;1.50;;
86304;SDS011;76964;49.316;7.118;2024-03-17T00:13:32;1.47;;;1.47;;
86304;SDS011;76964;49.316;7.118;2024-03-17T00:15:59;1.40;;;1.40;;
86304;SDS011;76964;49.316;7.118;2024-03-17T00:18:26;1.43;;;1.43;;
86304;SDS011;76964;49.316;7.118;2024-03-17T00:20:53;1.43;;;1.43;;
86304;SDS011;76964;49.316;7.118;2024-03-17T00:23:21;1.50;;;1.50;;
86304;SDS011;76964;49.316;7.118;2024-03-17T00:25:48;1.40;;;1.40;;
86304;SDS011;76964;49.316;7.118;2024-03-17T00:28:16;1.30;;;1.30;;
86304;SDS011;76964;49.316;7.118;2024-03-17T00:30:43;1.40;;;1.40;;
86304;SDS011;76964;49.316;7.118;2024-03-17T00:33:09;1.30;;;1.30;;
86304;SDS011;76964;49.316;7.118;2024-03-17T00:35:36;1.40;;;1.40;;
86304;SDS011;76964;49.316;7.118;2024-03-17T00:38:03;1.50;;;1.50;;
86304;SDS011;76964;49.316;7.118;2024-03-17T00:40:36;1.40;;;1.40;;
86304;SDS011;76964;49.316;7.118;2024-03-17T00:43:03;1.50;;;1.50;;
86304;SDS011;76964;49.316;7.118;2024-03-17T00:45:31;1.37;;;1.37;;
86304;SDS011;76964;49.316;7.118;2024-03-17T00:47:57;1.63;;;1.63;;
86304;SDS011;76964;49.316;7.118;2024-03-17T00:50:24;1.40;;;1.40;;
86304;SDS011;76964;49.316;7.118;2024-03-17T00:52:50;1.70;;;1.70;;
86304;SDS011;76964;49.316;7.118;2024-03-17T00:55:17;1.60;;;1.60;;
86304;SDS011;76964;49.316;7.118;2024-03-17T00:57:46;1.47;;;1.47;;
86304;SDS011;76964;49.316;7.118;2024-03-17T01:00:12;1.50;;;1.50;;
86304;SDS011;76964;49.316;7.118;2024-03-17T01:02:40;1.70;;;1.70;;
86304;SDS011;76964;49.316;7.118;2024-03-17T01:05:07;1.53;;;1.53;;
86304;SDS011;76964;49.316;7.118;2024-03-17T01:07:34;1.80;;;1.70;;
86304;SDS011;76964;49.316;7.118;2024-03-17T01:10:01;1.60;;;1.60;;
86304;SDS011;76964;49.316;7.118;2024-03-17T01:12:28;1.57;;;1.57;;
86304;SDS011;76964;49.316;7.118;2024-03-17T01:14:55;1.53;;;1.53;;
86304;SDS011;76964;49.316;7.118;2024-03-17T01:17:23;1.60;;;1.60;;
86304;SDS011;76964;49.316;7.118;2024-03-17T01:19:49;1.50;;;1.50;;
86304;SDS011;76964;49.316;7.118;2024-03-17T01:22:17;1.60;;;1.60;;
86304;SDS011;76964;49.316;7.118;2024-03-17T01:24:43;1.53;;;1.53;;
86304;SDS011;76964;49.316;7.118;2024-03-17T01:27:11;1.43;;;1.43;;
86304;SDS011;76964;49.316;7.118;2024-03-17T01:29:40;1.53;;;1.53;;
86304;SDS011;76964;49.316;7.118;2024-03-17T01:32:09;1.63;;;1.63;;
86304;SDS011;76964;49.316;7.118;2024-03-17T01:34:36;1.60;;;1.60;;
86304;SDS011;76964;49.316;7.118;2024-03-17T01:37:03;1.63;;;1.63;;
86304;SDS011;76964;49.316;7.118;2024-03-17T01:39:30;1.60;;;1.60;;
86304;SDS011;76964;49.316;7.118;2024-03-17T01:41:57;1.50;;;1.50;;
86304;SDS011;76964;49.316;7.118;2024-03-17T01:44:24;1.40;;;1.40;;
86304;SDS011;76964;49.316;7.118;2024-03-17T01:46:53;1.60;;;1.60;;
86304;SDS011;76964;49.316;7.118;2024-03-17T01:49:21;1.63;;;1.63;;
86304;SDS011;76964;49.316;7.118;2024-03-17T01:51:49;1.37;;;1.37;;
86304;SDS011;76964;49.316;7.118;2024-03-17T01:54:16;1.63;;;1.63;;
86304;SDS011;76964;49.316;7.118;2024-03-17T01:56:43;1.70;;;1.60;;
86304;SDS011;76964;49.316;7.118;2024-03-17T01:59:10;1.20;;;1.20;;
86304;SDS011;76964;49.316;7.118;2024-03-17T02:01:37;1.60;;;1.60;;
86304;SDS011;76964;49.316;7.118;2024-03-17T02:04:04;1.60;;;1.60;;
86304;SDS011;76964;49.316;7.118;2024-03-17T02:06:33;1.63;;;1.63;;
86304;SDS011;76964;49.316;7.118;2024-03-17T02:09:00;1.50;;;1.50;;
86304;SDS011;76964;49.316;7.118;2024-03-17T02:11:28;1.57;;;1.57;;
86304;SDS011;76964;49.316;7.118;2024-03-17T02:13:56;1.60;;;1.60;;
86304;SDS011;76964;49.316;7.118;2024-03-17T02:16:23;1.50;;;1.50;;
86304;SDS011;76964;49.316;7.118;2024-03-17T02:18:53;1.60;;;1.60;;
86304;SDS011;76964;49.316;7.118;2024-03-17T02:21:20;1.50;;;1.50;;
86304;SDS011;76964;49.316;7.118;2024-03-17T02:23:51;1.50;;;1.50;;
86304;SDS011;76964;49.316;7.118;2024-03-17T02:26:17;1.50;;;1.50;;
86304;SDS011;76964;49.316;7.118;2024-03-17T02:28:45;1.40;;;1.40;;
86304;SDS011;76964;49.316;7.118;2024-03-17T02:31:13;1.80;;;1.80;;
86304;SDS011;76964;49.316;7.118;2024-03-17T02:33:41;1.60;;;1.60;;
86304;SDS011;76964;49.316;7.118;2024-03-17T02:36:09;1.50;;;1.50;;
86304;SDS011;76964;49.316;7.118;2024-03-17T02:38:37;1.60;;;1.50;;
86304;SDS011;76964;49.316;7.118;2024-03-17T02:41:24;1.50;;;1.50;;
86304;SDS011;76964;49.316;7.118;2024-03-17T02:43:52;1.67;;;1.67;;
86304;SDS011;76964;49.316;7.118;2024-03-17T02:46:19;1.70;;;1.70;;
86304;SDS011;76964;49.316;7.118;2024-03-17T02:48:51;1.50;;;1.50;;
86304;SDS011;76964;49.316;7.118;2024-03-17T02:51:19;1.50;;;1.50;;
86304;SDS011;76964;49.316;7.118;2024-03-17T02:53:51;1.40;;;1.40;;
86304;SDS011;76964;49.316;7.118;2024-03-17T02:56:18;1.30;;;1.30;;
86304;SDS011;76964;49.316;7.118;2024-03-17T02:58:47;1.50;;;1.50;;
86304;SDS011;76964;49.316;7.118;2024-03-17T03:01:16;1.60;;;1.60;;
86304;SDS011;76964;49.316;7.118;2024-03-17T03:03:44;1.63;;;1.63;;
86304;SDS011;76964;49.316;7.118;2024-03-17T03:06:11;1.40;;;1.40;;
86304;SDS011;76964;49.316;7.118;2024-03-17T03:08:39;1.37;;;1.37;;
86304;SDS011;76964;49.316;7.118;2024-03-17T03:11:07;1.33;;;1.33;;
86304;SDS011;76964;49.316;7.118;2024-03-17T03:13:36;1.50;;;1.50;;
86304;SDS011;76964;49.316;7.118;2024-03-17T03:16:07;1.37;;;1.37;;
86304;SDS011;76964;49.316;7.118;2024-03-17T03:18:35;1.40;;;1.40;;
86304;SDS011;76964;49.316;7.118;2024-03-17T03:21:02;1.40;;;1.40;;
86304;SDS011;76964;49.316;7.118;2024-03-17T03:23:29;1.53;;;1.53;;
86304;SDS011;76964;49.316;7.118;2024-03-17T03:25:57;1.40;;;1.40;;
86304;SDS011;76964;49.316;7.118;2024-03-17T03:28:25;1.37;;;1.37;;
86304;SDS011;76964;49.316;7.118;2024-03-17T03:30:53;1.40;;;1.40;;
86304;SDS011;76964;49.316;7.118;2024-03-17T03:33:22;1.33;;;1.33;;
86304;SDS011;76964;49.316;7.118;2024-03-17T03:35:49;1.40;;;1.40;;
86304;SDS011;76964;49.316;7.118;2024-03-17T03:38:17;1.40;;;1.40;;
86304;SDS011;76964;49.316;7.118;2024-03-17T03:40:45;1.47;;;1.47;;
86304;SDS011;76964;49.316;7.118;2024-03-17T03:43:13;1.40;;;1.40;;
86304;SDS011;76964;49.316;7.118;2024-03-17T03:45:40;1.40;;;1.40;;
86304;SDS011;76964;49.316;7.118;2024-03-17T03:48:08;1.27;;;1.27;;
86304;SDS011;76964;49.316;7.118;2024-03-17T03:50:36;1.30;;;1.30;;
86304;SDS011;76964;49.316;7.118;2024-03-17T03:53:04;1.30;;;1.30;;
86304;SDS011;76964;49.316;7.118;2024-03-17T03:55:32;1.50;;;1.50;;
86304;SDS011;76964;49.316;7.118;2024-03-17T03:57:59;1.37;;;1.37;;
86304;SDS011;76964;49.316;7.118;2024-03-17T04:00:26;1.13;;;1.13;;
86304;SDS011;76964;49.316;7.118;2024-03-17T04:02:58;1.40;;;1.40;;
86304;SDS011;76964;49.316;7.118;2024-03-17T04:05:27;1.20;;;1.20;;
86304;SDS011;76964;49.316;7.118;2024-03-17T04:07:56;1.30;;;1.30;;
86304;SDS011;76964;49.316;7.118;2024-03-17T04:10:23;1.47;;;1.47;;
86304;SDS011;76964;49.316;7.118;2024-03-17T04:12:50;1.40;;;1.40;;
86304;SDS011;76964;49.316;7.118;2024-03-17T04:15:18;1.40;;;1.30;;
86304;SDS011;76964;49.316;7.118;2024-03-17T04:17:45;1.23;;;1.23;;
86304;SDS011;76964;49.316;7.118;2024-03-17T04:20:13;1.47;;;1.47;;
86304;SDS011;76964;49.316;7.118;2024-03-17T04:22:40;1.43;;;1.43;;
86304;SDS011;76964;49.316;7.118;2024-03-17T04:25:09;1.23;;;1.23;;
86304;SDS011;76964;49.316;7.118;2024-03-17T04:27:37;1.50;;;1.50;;
86304;SDS011;76964;49.316;7.118;2024-03-17T04:30:05;1.37;;;1.37;;
86304;SDS011;76964;49.316;7.118;2024-03-17T04:32:33;1.70;;;1.70;;
86304;SDS011;76964;49.316;7.118;2024-03-17T04:35:00;1.30;;;1.30;;
86304;SDS011;76964;49.316;7.118;2024-03-17T04:37:27;1.40;;;1.40;;
86304;SDS011;76964;49.316;7.118;2024-03-17T04:39:54;1.30;;;1.30;;
86304;SDS011;76964;49.316;7.118;2024-03-17T04:42:24;1.40;;;1.40;;
86304;SDS011;76964;49.316;7.118;2024-03-17T04:44:51;1.40;;;1.40;;
86304;SDS011;76964;49.316;7.118;2024-03-17T04:47:20;1.50;;;1.50;;
86304;SDS011;76964;49.316;7.118;2024-03-17T04:49:47;1.30;;;1.30;;
86304;SDS011;76964;49.316;7.118;2024-03-17T04:52:14;1.37;;;1.37;;
86304;SDS011;76964;49.316;7.118;2024-03-17T04:54:41;1.30;;;1.30;;
86304;SDS011;76964;49.316;7.118;2024-03-17T04:57:08;1.47;;;1.47;;
86304;SDS011;76964;49.316;7.118;2024-03-17T04:59:37;1.30;;;1.30;;
86304;SDS011;76964;49.316;7.118;2024-03-17T05:02:04;1.30;;;1.30;;
86304;SDS011;76964;49.316;7.118;2024-03-17T05:04:32;1.30;;;1.30;;
86304;SDS011;76964;49.316;7.118;2024-03-17T05:07:00;1.23;;;1.23;;
86304;SDS011;76964;49.316;7.118;2024-03-17T05:09:27;1.50;;;1.50;;
86304;SDS011;76964;49.316;7.118;2024-03-17T05:11:54;1.67;;;1.67;;
86304;SDS011;76964;49.316;7.118;2024-03-17T05:14:21;1.60;;;1.60;;
86304;SDS011;76964;49.316;7.118;2024-03-17T05:16:50;1.20;;;1.20;;
86304;SDS011;76964;49.316;7.118;2024-03-17T05:19:18;1.30;;;1.30;;
86304;SDS011;76964;49.316;7.118;2024-03-17T05:21:45;1.37;;;1.37;;
86304;SDS011;76964;49.316;7.118;2024-03-17T05:24:12;1.37;;;1.37;;
86304;SDS011;76964;49.316;7.118;2024-03-17T05:26:39;1.30;;;1.30;;
86304;SDS011;76964;49.316;7.118;2024-03-17T05:29:07;1.50;;;1.50;;
86304;SDS011;76964;49.316;7.118;2024-03-17T05:31:35;1.47;;;1.47;;
86304;SDS011;76964;49.316;7.118;2024-03-17T05:34:06;1.40;;;1.40;;
86304;SDS011;76964;49.316;7.118;2024-03-17T05:36:34;1.50;;;1.40;;
86304;SDS011;76964;49.316;7.118;2024-03-17T05:39:01;1.50;;;1.50;;
86304;SDS011;76964;49.316;7.118;2024-03-17T05:41:29;4.50;;;2.40;;
86304;SDS011;76964;49.316;7.118;2024-03-17T05:43:56;5.17;;;2.87;;
86304;SDS011;76964;49.316;7.118;2024-03-17T05:46:24;4.47;;;2.50;;
86304;SDS011;76964;49.316;7.118;2024-03-17T05:48:52;3.00;;;2.70;;
86304;SDS011;76964;49.316;7.118;2024-03-17T05:51:21;3.33;;;2.63;;
86304;SDS011;76964;49.316;7.118;2024-03-17T05:53:50;3.63;;;2.90;;
86304;SDS011;76964;49.316;7.118;2024-03-17T05:56:18;6.87;;;3.63;;
86304;SDS011;76964;49.316;7.118;2024-03-17T05:58:45;6.50;;;3.60;;
86304;SDS011;76964;49.316;7.118;2024-03-17T06:01:12;8.93;;;3.87;;
86304;SDS011;76964;49.316;7.118;2024-03-17T06:03:39;6.53;;;3.90;;
86304;SDS011;76964;49.316;7.118;2024-03-17T06:06:07;5.57;;;3.63;;
86304;SDS011;76964;49.316;7.118;2024-03-17T06:08:36;6.23;;;3.33;;
86304;SDS011;76964;49.316;7.118;2024-03-17T06:11:04;5.90;;;3.60;;
86304;SDS011;76964;49.316;7.118;2024-03-17T06:13:32;8.23;;;4.20;;
86304;SDS011;76964;49.316;7.118;2024-03-17T06:16:01;7.77;;;4.03;;
86304;SDS011;76964;49.316;7.118;2024-03-17T06:18:28;7.97;;;4.20;;
86304;SDS011;76964;49.316;7.118;2024-03-17T06:20:56;7.23;;;4.23;;
86304;SDS011;76964;49.316;7.118;2024-03-17T06:23:24;7.73;;;4.27;;
86304;SDS011;76964;49.316;7.118;2024-03-17T06:25:54;7.80;;;4.33;;
86304;SDS011;76964;49.316;7.118;2024-03-17T06:28:21;8.33;;;4.37;;
86304;SDS011;76964;49.316;7.118;2024-03-17T06:30:56;9.87;;;4.63;;
86304;SDS011;76964;49.316;7.118;2024-03-17T06:33:25;6.60;;;4.37;;
86304;SDS011;76964;49.316;7.118;2024-03-17T06:35:53;5.23;;;4.30;;
86304;SDS011;76964;49.316;7.118;2024-03-17T06:38:21;7.33;;;4.30;;
86304;SDS011;76964;49.316;7.118;2024-03-17T06:40:48;7.07;;;4.30;;
86304;SDS011;76964;49.316;7.118;2024-03-17T06:43:17;7.53;;;4.87;;
86304;SDS011;76964;49.316;7.118;2024-03-17T06:45:53;8.73;;;4.97;;
86304;SDS011;76964;49.316;7.118;2024-03-17T06:48:21;7.70;;;4.40;;
86304;SDS011;76964;49.316;7.118;2024-03-17T06:50:48;8.50;;;4.93;;
86304;SDS011;76964;49.316;7.118;2024-03-17T06:53:17;8.20;;;4.93;;
86304;SDS011;76964;49.316;7.118;2024-03-17T06:55:51;9.30;;;5.07;;
86304;SDS011;76964;49.316;7.118;2024-03-17T06:58:21;6.43;;;4.40;;
86304;SDS011;76964;49.316;7.118;2024-03-17T07:00:55;8.67;;;4.93;;
86304;SDS011;76964;49.316;7.118;2024-03-17T07:03:23;7.80;;;5.17;;
86304;SDS011;76964;49.316;7.118;2024-03-17T07:05:52;8.47;;;4.83;;
86304;SDS011;76964;49.316;7.118;2024-03-17T07:08:20;6.77;;;4.33;;
86304;SDS011;76964;49.316;7.118;2024-03-17T07:10:59;9.43;;;4.87;;
86304;SDS011;76964;49.316;7.118;2024-03-17T07:13:30;8.77;;;5.33;;
86304;SDS011;76964;49.316;7.118;2024-03-17T07:15:58;5.90;;;4.30;;
86304;SDS011;76964;49.316;7.118;2024-03-17T07:18:25;5.67;;;4.13;;
86304;SDS011;76964;49.316;7.118;2024-03-17T07:20:56;5.63;;;4.17;;
86304;SDS011;76964;49.316;7.118;2024-03-17T07:23:23;6.67;;;4.50;;
86304;SDS011;76964;49.316;7.118;2024-03-17T07:25:51;6.87;;;4.30;;
86304;SDS011;76964;49.316;7.118;2024-03-17T07:28:19;7.53;;;4.70;;
86304;SDS011;76964;49.316;7.118;2024-03-17T07:30:48;6.50;;;4.23;;
86304;SDS011;76964;49.316;7.118;2024-03-17T07:33:16;4.90;;;3.80;;
86304;SDS011;76964;49.316;7.118;2024-03-17T07:35:49;5.27;;;4.20;;
86304;SDS011;76964;49.316;7.118;2024-03-17T07:38:17;6.50;;;4.37;;
86304;SDS011;76964;49.316;7.118;2024-03-17T07:40:45;4.43;;;3.93;;
86304;SDS011;76964;49.316;7.118;2024-03-17T07:43:23;5.47;;;4.20;;
86304;SDS011;76964;49.316;7.118;2024-03-17T07:45:59;4.17;;;3.80;;
86304;SDS011;76964;49.316;7.118;2024-03-17T07:48:28;6.63;;;4.10;;
86304;SDS011;76964;49.316;7.118;2024-03-17T07:50:55;5.23;;;4.10;;
86304;SDS011;76964;49.316;7.118;2024-03-17T07:53:23;5.77;;;4.20;;
86304;SDS011;76964;49.316;7.118;2024-03-17T07:55:59;5.27;;;4.07;;
86304;SDS011;76964;49.316;7.118;2024-03-17T07:58:27;4.27;;;3.80;;
86304;SDS011;76964;49.316;7.118;2024-03-17T08:00:59;6.17;;;3.50;;
86304;SDS011;76964;49.316;7.118;2024-03-17T08:03:29;3.73;;;3.43;;
86304;SDS011;76964;49.316;7.118;2024-03-17T08:05:57;3.57;;;3.27;;
86304;SDS011;76964;49.316;7.118;2024-03-17T08:08:25;4.03;;;3.40;;
86304;SDS011;76964;49.316;7.118;2024-03-17T08:10:52;4.80;;;3.70;;
86304;SDS011;76964;49.316;7.118;2024-03-17T08:13:19;4.37;;;3.90;;
86304;SDS011;76964;49.316;7.118;2024-03-17T08:15:54;3.73;;;3.43;;
86304;SDS011;76964;49.316;7.118;2024-03-17T08:18:24;3.60;;;3.27;;
86304;SDS011;76964;49.316;7.118;2024-03-17T08:20:52;3.33;;;3.13;;
86304;SDS011;76964;49.316;7.118;2024-03-17T08:23:20;3.70;;;3.17;;
86304;SDS011;76964;49.316;7.118;2024-03-17T08:25:51;4.20;;;3.80;;
86304;SDS011;76964;49.316;7.118;2024-03-17T08:28:19;3.77;;;3.40;;
86304;SDS011;76964;49.316;7.118;2024-03-17T08:30:50;3.83;;;3.53;;
86304;SDS011;76964;49.316;7.118;2024-03-17T08:33:18;3.47;;;3.27;;
86304;SDS011;76964;49.316;7.118;2024-03-17T08:35:53;3.43;;;3.13;;
86304;SDS011;76964;49.316;7.118;2024-03-17T08:38:21;3.30;;;3.10;;
86304;SDS011;76964;49.316;7.118;2024-03-17T08:40:49;3.97;;;3.13;;
86304;SDS011;76964;49.316;7.118;2024-03-17T08:43:16;3.77;;;3.47;;
86304;SDS011;76964;49.316;7.118;2024-03-17T08:45:44;3.53;;;3.30;;
86304;SDS011;76964;49.316;7.118;2024-03-17T08:48:11;4.23;;;3.10;;
86304;SDS011;76964;49.316;7.118;2024-03-17T08:50:38;3.37;;;3.07;;
86304;SDS011;76964;49.316;7.118;2024-03-17T08:53:07;3.20;;;3.00;;
86304;SDS011;76964;49.316;7.118;2024-03-17T08:55:34;3.13;;;2.93;;
86304;SDS011;76964;49.316;7.118;2024-03-17T08:58:01;3.60;;;3.30;;
86304;SDS011;76964;49.316;7.118;2024-03-17T09:00:28;3.30;;;3.07;;
86304;SDS011;76964;49.316;7.118;2024-03-17T09:02:55;3.27;;;2.90;;
86304;SDS011;76964;49.316;7.118;2024-03-17T09:05:23;3.27;;;3.07;;
86304;SDS011;76964;49.316;7.118;2024-03-17T09:07:49;3.13;;;2.93;;
86304;SDS011;76964;49.316;7.118;2024-03-17T09:10:18;3.50;;;3.30;;
86304;SDS011;76964;49.316;7.118;2024-03-17T09:12:45;2.80;;;2.70;;
86304;SDS011;76964;49.316;7.118;2024-03-17T09:15:12;2.67;;;2.50;;
86304;SDS011;76964;49.316;7.118;2024-03-17T09:17:40;3.00;;;2.90;;
86304;SDS011;76964;49.316;7.118;2024-03-17T09:20:07;3.10;;;2.90;;
86304;SDS011;76964;49.316;7.118;2024-03-17T09:22:38;2.90;;;2.70;;
86304;SDS011;76964;49.316;7.118;2024-03-17T09:25:05;2.50;;;2.40;;
86304;SDS011;76964;49.316;7.118;2024-03-17T09:27:35;3.17;;;2.90;;
86304;SDS011;76964;49.316;7.118;2024-03-17T09:30:03;2.90;;;2.70;;
86304;SDS011;76964;49.316;7.118;2024-03-17T09:32:34;2.63;;;2.43;;
86304;SDS011;76964;49.316;7.118;2024-03-17T09:35:01;2.57;;;2.40;;
86304;SDS011;76964;49.316;7.118;2024-03-17T09:37:30;2.73;;;2.63;;
86304;SDS011;76964;49.316;7.118;2024-03-17T09:39:57;2.77;;;2.67;;
86304;SDS011;76964;49.316;7.118;2024-03-17T09:42:25;2.73;;;2.63;;
86304;SDS011;76964;49.316;7.118;2024-03-17T09:44:55;2.87;;;2.73;;
86304;SDS011;76964;49.316;7.118;2024-03-17T09:47:23;2.80;;;2.53;;
86304;SDS011;76964;49.316;7.118;2024-03-17T09:49:51;2.40;;;2.30;;
86304;SDS011;76964;49.316;7.118;2024-03-17T09:52:20;2.73;;;2.53;;
86304;SDS011;76964;49.316;7.118;2024-03-17T09:54:50;3.10;;;2.90;;
86304;SDS011;76964;49.316;7.118;2024-03-17T09:57:22;2.83;;;2.63;;
86304;SDS011;76964;49.316;7.118;2024-03-17T09:59:51;2.53;;;2.43;;
86304;SDS011;76964;49.316;7.118;2024-03-17T10:02:20;2.37;;;2.27;;
86304;SDS011;76964;49.316;7.118;2024-03-17T10:04:48;2.50;;;2.30;;
86304;SDS011;76964;49.316;7.118;2024-03-17T10:07:15;2.30;;;2.20;;
86304;SDS011;76964;49.316;7.118;2024-03-17T10:09:42;2.40;;;2.30;;
86304;SDS011;76964;49.316;7.118;2024-03-17T10:12:26;2.43;;;2.33;;
86304;SDS011;76964;49.316;7.118;2024-03-17T10:14:57;2.40;;;2.30;;
86304;SDS011;76964;49.316;7.118;2024-03-17T10:17:32;2.60;;;2.50;;
86304;SDS011;76964;49.316;7.118;2024-03-17T10:20:13;2.27;;;2.17;;
86304;SDS011;76964;49.316;7.118;2024-03-17T10:22:58;2.30;;;2.20;;
86304;SDS011;76964;49.316;7.118;2024-03-17T10:25:25;2.57;;;2.37;;
86304;SDS011;76964;49.316;7.118;2024-03-17T10:27:53;2.10;;;2.00;;
86304;SDS011;76964;49.316;7.118;2024-03-17T10:30:22;2.20;;;2.10;;
86304;SDS011;76964;49.316;7.118;2024-03-17T10:32:53;2.00;;;2.00;;
86304;SDS011;76964;49.316;7.118;2024-03-17T10:35:30;2.27;;;2.17;;
86304;SDS011;76964;49.316;7.118;2024-03-17T10:37:59;2.13;;;2.03;;
86304;SDS011;76964;49.316;7.118;2024-03-17T10:40:27;1.90;;;1.80;;
86304;SDS011;76964;49.316;7.118;2024-03-17T10:42:56;2.00;;;2.00;;
86304;SDS011;76964;49.316;7.118;2024-03-17T10:45:24;2.03;;;2.00;;
86304;SDS011;76964;49.316;7.118;2024-03-17T10:47:53;2.37;;;2.27;;
86304;SDS011;76964;49.316;7.118;2024-03-17T10:50:21;2.33;;;2.23;;
86304;SDS011;76964;49.316;7.118;2024-03-17T10:52:50;2.30;;;2.20;;
86304;SDS011;76964;49.316;7.118;2024-03-17T10:55:21;2.40;;;2.30;;
86304;SDS011;76964;49.316;7.118;2024-03-17T10:57:50;2.20;;;2.10;;
86304;SDS011;76964;49.316;7.118;2024-03-17T11:00:18;2.43;;;2.33;;
86304;SDS011;76964;49.316;7.118;2024-03-17T11:02:47;2.27;;;2.17;;
86304;SDS011;76964;49.316;7.118;2024-03-17T11:05:21;1.83;;;1.83;;
86304;SDS011;76964;49.316;7.118;2024-03-17T11:07:50;2.20;;;2.10;;
86304;SDS011;76964;49.316;7.118;2024-03-17T11:10:21;2.20;;;2.10;;
86304;SDS011;76964;49.316;7.118;2024-03-17T11:12:50;2.30;;;2.20;;
86304;SDS011;76964;49.316;7.118;2024-03-17T11:15:37;2.00;;;2.00;;
86304;SDS011;76964;49.316;7.118;2024-03-17T11:20:58;1.87;;;1.87;;
86304;SDS011;76964;49.316;7.118;2024-03-17T11:23:27;1.97;;;1.97;;
86304;SDS011;76964;49.316;7.118;2024-03-17T11:25:54;2.10;;;2.00;;
86304;SDS011;76964;49.316;7.118;2024-03-17T11:37:10;1.97;;;1.80;;
86304;SDS011;76964;49.316;7.118;2024-03-17T11:40:22;1.90;;;1.90;;
86304;SDS011;76964;49.316;7.118;2024-03-17T11:43:00;1.70;;;1.70;;
86304;SDS011;76964;49.316;7.118;2024-03-17T11:45:26;1.87;;;1.87;;
86304;SDS011;76964;49.316;7.118;2024-03-17T11:47:54;1.83;;;1.83;;
86304;SDS011;76964;49.316;7.118;2024-03-17T11:50:20;1.80;;;1.80;;
86304;SDS011;76964;49.316;7.118;2024-03-17T11:52:58;1.70;;;1.60;;
86304;SDS011;76964;49.316;7.118;2024-03-17T11:55:24;2.00;;;1.90;;
86304;SDS011;76964;49.316;7.118;2024-03-17T11:57:55;1.70;;;1.70;;
86304;SDS011;76964;49.316;7.118;2024-03-17T12:00:21;1.80;;;1.80;;
86304;SDS011;76964;49.316;7.118;2024-03-17T12:02:50;1.90;;;1.90;;
86304;SDS011;76964;49.316;7.118;2024-03-17T12:05:16;2.00;;;1.90;;
86304;SDS011;76964;49.316;7.118;2024-03-17T12:07:43;1.40;;;1.40;;
86304;SDS011;76964;49.316;7.118;2024-03-17T12:10:11;1.53;;;1.53;;
86304;SDS011;76964;49.316;7.118;2024-03-17T12:12:40;1.83;;;1.83;;
86304;SDS011;76964;49.316;7.118;2024-03-17T12:15:15;1.67;;;1.67;;
86304;SDS011;76964;49.316;7.118;2024-03-17T12:17:44;1.90;;;1.90;;
86304;SDS011;76964;49.316;7.118;2024-03-17T12:20:17;1.67;;;1.67;;
86304;SDS011;76964;49.316;7.118;2024-03-17T12:22:46;1.60;;;1.60;;
86304;SDS011;76964;49.316;7.118;2024-03-17T12:25:16;1.47;;;1.47;;
86304;SDS011;76964;49.316;7.118;2024-03-17T12:27:46;1.70;;;1.70;;
86304;SDS011;76964;49.316;7.118;2024-03-17T12:30:14;1.50;;;1.50;;
86304;SDS011;76964;49.316;7.118;2024-03-17T12:32:42;2.10;;;2.00;;
86304;SDS011;76964;49.316;7.118;2024-03-17T12:35:12;1.60;;;1.60;;
86304;SDS011;76964;49.316;7.118;2024-03-17T12:37:40;1.57;;;1.57;;
86304;SDS011;76964;49.316;7.118;2024-03-17T12:40:19;1.80;;;1.80;;
86304;SDS011;76964;49.316;7.118;2024-03-17T12:42:47;1.60;;;1.60;;
86304;SDS011;76964;49.316;7.118;2024-03-17T12:45:19;1.60;;;1.60;;
86304;SDS011;76964;49.316;7.118;2024-03-17T12:47:46;3.13;;;1.80;;
86304;SDS011;76964;49.316;7.118;2024-03-17T12:50:15;3.90;;;1.97;;
86304;SDS011;76964;49.316;7.118;2024-03-17T12:52:46;8.03;;;2.17;;
86304;SDS011;76964;49.316;7.118;2024-03-17T12:55:20;5.53;;;1.67;;
86304;SDS011;76964;49.316;7.118;2024-03-17T12:58:05;2.10;;;1.87;;
86304;SDS011;76964;49.316;7.118;2024-03-17T13:00:56;1.63;;;1.60;;
86304;SDS011;76964;49.316;7.118;2024-03-17T13:03:25;5.17;;;2.20;;
86304;SDS011;76964;49.316;7.118;2024-03-17T13:05:52;3.00;;;1.90;;
86304;SDS011;76964;49.316;7.118;2024-03-17T13:08:19;2.23;;;1.70;;
86304;SDS011;76964;49.316;7.118;2024-03-17T13:10:48;1.53;;;1.50;;
86304;SDS011;76964;49.316;7.118;2024-03-17T13:13:16;1.50;;;1.50;;
86304;SDS011;76964;49.316;7.118;2024-03-17T13:15:43;1.83;;;1.60;;
86304;SDS011;76964;49.316;7.118;2024-03-17T13:18:15;2.07;;;1.97;;
86304;SDS011;76964;49.316;7.118;2024-03-17T13:20:44;1.93;;;1.73;;
86304;SDS011;76964;49.316;7.118;2024-03-17T13:23:12;1.53;;;1.53;;
86304;SDS011;76964;49.316;7.118;2024-03-17T13:25:39;2.50;;;1.53;;
86304;SDS011;76964;49.316;7.118;2024-03-17T13:28:10;1.43;;;1.33;;
86304;SDS011;76964;49.316;7.118;2024-03-17T13:30:37;1.70;;;1.70;;
86304;SDS011;76964;49.316;7.118;2024-03-17T13:33:05;1.60;;;1.50;;
86304;SDS011;76964;49.316;7.118;2024-03-17T13:35:36;1.50;;;1.50;;
86304;SDS011;76964;49.316;7.118;2024-03-17T13:38:04;1.57;;;1.57;;
86304;SDS011;76964;49.316;7.118;2024-03-17T13:40:33;2.50;;;1.50;;
86304;SDS011;76964;49.316;7.118;2024-03-17T13:43:01;1.40;;;1.40;;
86304;SDS011;76964;49.316;7.118;2024-03-17T13:45:39;1.60;;;1.50;;
86304;SDS011;76964;49.316;7.118;2024-03-17T13:48:08;1.63;;;1.63;;
86304;SDS011;76964;49.316;7.118;2024-03-17T13:50:36;1.57;;;1.47;;
86304;SDS011;76964;49.316;7.118;2024-03-17T13:53:04;1.60;;;1.60;;
86304;SDS011;76964;49.316;7.118;2024-03-17T13:55:32;1.30;;;1.30;;
86304;SDS011;76964;49.316;7.118;2024-03-17T13:58:00;1.73;;;1.60;;
86304;SDS011;76964;49.316;7.118;2024-03-17T14:00:31;1.40;;;1.40;;
86304;SDS011;76964;49.316;7.118;2024-03-17T14:03:01;1.50;;;1.50;;
86304;SDS011;76964;49.316;7.118;2024-03-17T14:05:28;1.40;;;1.40;;
86304;SDS011;76964;49.316;7.118;2024-03-17T14:07:58;1.23;;;1.23;;
86304;SDS011;76964;49.316;7.118;2024-03-17T14:10:25;1.27;;;1.27;;
86304;SDS011;76964;49.316;7.118;2024-03-17T14:12:52;1.50;;;1.40;;
86304;SDS011;76964;49.316;7.118;2024-03-17T14:15:19;1.70;;;1.50;;
86304;SDS011;76964;49.316;7.118;2024-03-17T14:17:48;1.30;;;1.30;;
86304;SDS011;76964;49.316;7.118;2024-03-17T14:20:19;1.33;;;1.33;;
86304;SDS011;76964;49.316;7.118;2024-03-17T14:22:46;1.50;;;1.50;;
86304;SDS011;76964;49.316;7.118;2024-03-17T14:25:18;1.33;;;1.33;;
86304;SDS011;76964;49.316;7.118;2024-03-17T14:27:46;1.53;;;1.53;;
86304;SDS011;76964;49.316;7.118;2024-03-17T14:30:15;1.47;;;1.37;;
86304;SDS011;76964;49.316;7.118;2024-03-17T14:32:44;1.50;;;1.50;;
86304;SDS011;76964;49.316;7.118;2024-03-17T14:35:13;1.63;;;1.53;;
86304;SDS011;76964;49.316;7.118;2024-03-17T14:37:41;1.23;;;1.23;;
86304;SDS011;76964;49.316;7.118;2024-03-17T14:40:13;2.47;;;1.80;;
86304;SDS011;76964;49.316;7.118;2024-03-17T14:42:45;2.90;;;1.40;;
86304;SDS011;76964;49.316;7.118;2024-03-17T14:45:13;1.10;;;1.10;;
86304;SDS011;76964;49.316;7.118;2024-03-17T14:47:40;1.43;;;1.43;;
86304;SDS011;76964;49.316;7.118;2024-03-17T14:50:08;1.33;;;1.33;;
86304;SDS011;76964;49.316;7.118;2024-03-17T14:52:38;1.30;;;1.30;;
86304;SDS011;76964;49.316;7.118;2024-03-17T14:55:07;1.40;;;1.40;;
86304;SDS011;76964;49.316;7.118;2024-03-17T14:57:36;1.20;;;1.20;;
86304;SDS011;76964;49.316;7.118;2024-03-17T15:00:03;1.43;;;1.43;;
86304;SDS011;76964;49.316;7.118;2024-03-17T15:02:39;1.50;;;1.50;;
86304;SDS011;76964;49.316;7.118;2024-03-17T15:05:07;1.50;;;1.50;;
86304;SDS011;76964;49.316;7.118;2024-03-17T15:07:34;1.50;;;1.40;;
86304;SDS011;76964;49.316;7.118;2024-03-17T15:10:04;1.30;;;1.30;;